createdAt,value
2023-03-23T06:04:05.749Z,42.00
2023-03-23T06:05:06.798Z,41.91
2023-03-23T06:06:06.813Z,41.86
2023-03-23T06:07:06.883Z,41.82
2023-03-23T06:08:06.883Z,41.79
2023-03-23T06:09:07.298Z,41.74
2023-03-23T06:10:06.916Z,41.74
2023-03-23T06:13:06.028Z,41.71
2023-03-23T06:14:07.067Z,41.68
2023-03-23T06:15:07.106Z,41.70
2023-03-23T06:16:07.147Z,41.70
2023-03-23T06:17:07.180Z,41.69
2023-03-23T06:18:07.220Z,41.64
2023-03-23T06:19:07.256Z,41.65
2023-03-23T06:20:07.275Z,41.67
2023-03-23T06:21:07.433Z,41.68
2023-03-23T06:22:07.294Z,41.66
2023-03-23T06:23:07.288Z,41.64
2023-03-23T06:24:07.293Z,41.63
2023-03-23T06:28:06.244Z,41.60
2023-03-23T06:30:06.247Z,41.59
2023-03-23T06:31:07.217Z,41.59
2023-03-23T06:32:07.211Z,41.55
2023-03-23T06:33:07.209Z,41.52
2023-03-23T06:37:06.191Z,41.57
2023-03-23T06:38:07.179Z,41.53
2023-03-23T06:40:06.162Z,41.54
2023-03-23T06:41:07.163Z,41.53
2023-03-23T06:43:06.128Z,41.53
2023-03-23T06:44:07.132Z,41.52
2023-03-23T06:45:06.144Z,41.56
2023-03-23T06:46:06.120Z,41.50
2023-03-23T06:50:06.095Z,41.51
2023-03-23T06:51:07.235Z,41.52
2023-03-23T06:54:06.095Z,41.51
2023-03-23T06:55:07.062Z,41.49
2023-03-23T06:56:07.055Z,41.52
2023-03-23T06:58:06.061Z,41.50
2023-03-23T06:59:07.040Z,41.51
2023-03-23T07:02:06.154Z,41.53
2023-03-23T07:03:07.011Z,41.47
2023-03-23T07:06:07.006Z,41.55
2023-03-23T07:07:07.060Z,41.52
2023-03-23T07:08:06.983Z,41.52
2023-03-23T07:12:05.954Z,41.53
2023-03-23T07:13:06.946Z,41.52
2023-03-23T07:14:06.933Z,41.52
2023-03-23T07:17:05.933Z,41.53
2023-03-23T07:19:05.967Z,41.50
2023-03-23T07:20:05.994Z,41.49
2023-03-23T07:21:07.026Z,41.52
2023-03-23T07:22:07.043Z,41.49
2023-03-23T07:23:07.086Z,41.50
2023-03-23T07:27:06.098Z,41.49
2023-03-23T07:28:07.104Z,41.49
2023-03-23T07:29:07.123Z,41.45
2023-03-23T07:33:06.183Z,41.45
2023-03-23T07:36:06.221Z,41.41
2023-03-23T07:37:06.202Z,41.41
2023-03-23T07:41:06.230Z,41.44
2023-03-23T07:44:06.264Z,41.43
2023-03-23T07:48:12.769Z,41.43
2023-03-23T07:49:07.301Z,41.44
2023-03-23T07:51:06.294Z,41.41
2023-03-23T07:55:06.264Z,41.40
2023-03-23T07:56:07.252Z,41.43
2023-03-23T07:59:06.265Z,41.42
2023-03-23T08:00:07.217Z,41.43
2023-03-23T08:05:06.180Z,41.42
2023-03-23T08:06:06.182Z,41.41
2023-03-23T08:07:06.157Z,41.39
2023-03-23T08:08:07.163Z,41.42
2023-03-23T08:14:06.098Z,41.41
2023-03-23T08:15:07.104Z,41.41
2023-03-23T08:16:07.103Z,41.40
2023-03-23T08:21:06.058Z,41.39
2023-03-23T08:22:07.085Z,41.41
2023-03-23T08:24:06.116Z,41.42
2023-03-23T08:25:07.139Z,41.39
2023-03-23T08:26:07.153Z,41.42
2023-03-23T08:27:07.180Z,41.41
2023-03-23T08:29:06.168Z,41.40
2023-03-23T08:30:07.173Z,41.40
2023-03-23T08:33:06.175Z,41.39
2023-03-23T08:34:07.161Z,41.40
2023-03-23T08:38:06.165Z,41.39
2023-03-23T08:39:07.160Z,41.38
2023-03-23T08:42:06.162Z,41.37
2023-03-23T08:43:07.705Z,41.37
2023-03-23T08:44:06.143Z,41.38
2023-03-23T08:45:06.148Z,41.38
2023-03-23T08:46:07.143Z,41.39
2023-03-23T08:49:06.148Z,41.34
2023-03-23T08:50:07.159Z,41.35
2023-03-23T08:51:07.154Z,41.35
2023-03-23T08:52:07.165Z,41.35
2023-03-23T08:53:07.182Z,41.35
2023-03-23T08:55:06.182Z,41.34
2023-03-23T08:56:07.183Z,41.36
2023-03-23T08:57:06.183Z,41.32
2023-03-23T08:58:07.206Z,41.35
2023-03-23T08:59:07.225Z,41.37
2023-03-23T09:02:06.231Z,41.34
2023-03-23T09:03:07.242Z,41.34
2023-03-23T09:09:06.231Z,41.34
2023-03-23T09:12:06.246Z,41.33
2023-03-23T09:13:07.227Z,41.33
2023-03-23T09:14:07.244Z,41.37
2023-03-23T09:15:07.290Z,41.33
2023-03-23T09:17:06.276Z,41.36
2023-03-23T09:18:07.254Z,41.33
2023-03-23T09:22:06.281Z,41.34
2023-03-23T09:23:06.280Z,41.35
2023-03-23T09:24:07.307Z,41.34
2023-03-23T09:25:08.086Z,41.33
2023-03-23T09:27:06.299Z,41.30
2023-03-23T09:28:07.284Z,41.31
2023-03-23T09:32:06.299Z,41.36
2023-03-23T09:33:07.249Z,41.35
2023-03-23T09:34:07.255Z,41.36
2023-03-23T09:36:06.279Z,41.37
2023-03-23T09:37:07.264Z,41.37
2023-03-23T09:40:06.531Z,41.39
2023-03-23T09:41:07.198Z,41.42
2023-03-23T09:42:07.200Z,41.41
2023-03-23T09:43:06.188Z,41.39
2023-03-23T09:44:07.187Z,41.41
2023-03-23T09:45:07.204Z,41.43
2023-03-23T09:51:06.133Z,41.49
2023-03-23T09:52:06.135Z,41.50
2023-03-23T09:53:07.113Z,41.50
2023-03-23T09:56:06.095Z,41.54
2023-03-23T10:00:06.075Z,41.75
2023-03-23T10:01:07.103Z,41.71
2023-03-23T10:04:06.063Z,41.63
2023-03-23T10:05:07.030Z,41.80
2023-03-23T10:06:07.053Z,41.80
2023-03-23T10:08:06.018Z,41.94
2023-03-23T10:09:07.019Z,41.92
2023-03-23T10:10:07.018Z,42.00
2023-03-23T10:13:06.125Z,42.13
2023-03-23T10:14:07.224Z,42.11
2023-03-23T10:15:07.249Z,42.13
2023-03-23T10:16:07.330Z,42.16
2023-03-23T10:17:07.523Z,42.20
2023-03-23T10:18:06.410Z,42.27
2023-03-23T10:19:07.487Z,42.19
2023-03-23T10:20:07.504Z,42.15
2023-03-23T10:21:06.554Z,42.19
2023-03-23T10:22:07.613Z,42.16
2023-03-23T10:23:06.665Z,42.17
2023-03-23T10:24:06.750Z,42.22
2023-03-23T10:25:07.770Z,42.23
2023-03-23T10:26:07.820Z,42.22
2023-03-23T10:27:06.872Z,42.31
2023-03-23T10:28:06.908Z,42.30
2023-03-23T10:29:07.970Z,42.31
2023-03-23T10:32:07.122Z,42.35
2023-03-23T10:33:07.157Z,42.36
2023-03-23T10:34:08.205Z,42.41
2023-03-23T10:35:08.274Z,42.33
2023-03-23T10:36:08.373Z,42.41
2023-03-23T10:39:07.487Z,42.48
2023-03-23T10:40:07.525Z,42.45
2023-03-23T10:41:07.586Z,42.49
2023-03-23T10:42:08.650Z,42.50
2023-03-23T10:43:08.701Z,42.71
2023-03-23T10:44:08.768Z,42.65
2023-03-23T10:45:08.800Z,42.75
2023-03-23T10:48:07.994Z,42.71
2023-03-23T10:49:08.250Z,43.07
2023-03-23T10:50:08.027Z,43.14
2023-03-23T10:51:08.080Z,43.40
2023-03-23T10:52:09.121Z,43.28
2023-03-23T10:53:09.142Z,43.20
2023-03-23T10:54:10.700Z,43.53
2023-03-23T10:56:08.162Z,43.25
2023-03-23T10:57:08.155Z,43.32
2023-03-23T10:58:09.150Z,43.35
2023-03-23T11:01:08.142Z,43.32
2023-03-23T11:02:10.360Z,43.41
2023-03-23T11:03:09.105Z,43.66
2023-03-23T11:04:09.112Z,43.49
2023-03-23T11:06:08.113Z,43.53
2023-03-23T11:07:09.140Z,43.56
2023-03-23T11:08:08.082Z,43.78
2023-03-23T11:09:08.082Z,43.64
2023-03-23T11:10:09.061Z,43.65
2023-03-23T11:12:08.082Z,43.84
2023-03-23T11:13:09.106Z,43.94
2023-03-23T11:18:08.012Z,44.06
2023-03-23T11:19:08.017Z,44.09
2023-03-23T11:20:08.995Z,44.06
2023-03-23T11:21:09.002Z,44.05
2023-03-23T11:22:08.999Z,44.30
2023-03-23T11:23:09.009Z,44.17
2023-03-23T11:28:07.937Z,44.29
2023-03-23T11:29:09.243Z,44.50
2023-03-23T11:33:07.923Z,44.54
2023-03-23T11:34:08.899Z,44.66
2023-03-23T11:35:16.150Z,44.53
2023-03-23T11:36:08.944Z,44.59
2023-03-23T11:38:07.872Z,44.74
2023-03-23T11:39:07.912Z,44.63
2023-03-23T11:40:08.857Z,44.68
2023-03-23T11:44:07.847Z,44.92
2023-03-23T11:48:07.794Z,44.87
2023-03-23T11:49:19.224Z,44.85
2023-03-23T11:51:07.773Z,44.90
2023-03-23T11:52:08.777Z,44.89
2023-03-23T11:53:08.779Z,44.91
2023-03-23T11:54:08.770Z,44.99
2023-03-23T11:55:08.780Z,44.98
2023-03-23T12:00:07.725Z,45.08
2023-03-23T12:02:16.915Z,45.09
2023-03-23T12:03:08.698Z,45.13
2023-03-23T12:04:08.682Z,45.14
2023-03-23T12:05:08.690Z,45.13
2023-03-23T12:09:07.659Z,45.19
2023-03-23T12:10:07.649Z,45.21
2023-03-23T12:11:08.669Z,45.20
2023-03-23T12:13:07.924Z,45.28
2023-03-23T12:14:08.633Z,45.25
2023-03-23T12:19:07.582Z,45.30
2023-03-23T12:21:07.595Z,45.30
2023-03-23T12:22:08.552Z,45.26
2023-03-23T12:23:08.564Z,45.29
2023-03-23T12:26:07.531Z,45.37
2023-03-23T12:27:07.592Z,45.28
2023-03-23T12:28:08.514Z,45.29
2023-03-23T12:29:08.523Z,45.30
2023-03-23T12:30:08.503Z,45.28
2023-03-23T12:31:08.497Z,45.31
2023-03-23T12:36:07.513Z,45.32
2023-03-23T12:37:08.455Z,45.32
2023-03-23T12:38:08.439Z,45.29
2023-03-23T12:39:08.444Z,45.30
2023-03-23T12:42:07.435Z,45.30
2023-03-23T12:43:08.469Z,45.33
2023-03-23T12:44:08.429Z,45.31
2023-03-23T12:45:08.402Z,45.32
2023-03-23T12:47:07.379Z,45.37
2023-03-23T12:48:07.378Z,45.36
2023-03-23T12:49:07.376Z,45.37
2023-03-23T12:50:08.370Z,45.36
2023-03-23T12:51:08.373Z,45.36
2023-03-23T12:55:07.326Z,45.42
2023-03-23T12:56:08.323Z,45.42
2023-03-23T12:57:08.408Z,45.43
2023-03-23T12:58:08.382Z,45.39
2023-03-23T12:59:08.451Z,45.39
2023-03-23T13:00:08.457Z,45.40
2023-03-23T13:01:08.500Z,45.40
2023-03-23T13:02:07.511Z,45.35
2023-03-23T13:03:08.555Z,45.36
2023-03-23T13:04:08.583Z,45.39
2023-03-23T13:05:08.629Z,45.36
2023-03-23T13:08:07.607Z,45.39
2023-03-23T13:09:07.741Z,45.34
2023-03-23T13:10:08.687Z,45.35
2023-03-23T13:11:08.736Z,45.39
2023-03-23T13:12:08.763Z,45.33
2023-03-23T13:14:07.826Z,45.35
2023-03-23T13:15:08.861Z,45.32
2023-03-23T13:16:09.666Z,45.35
2023-03-23T13:17:08.900Z,45.35
2023-03-23T13:18:08.952Z,45.36
2023-03-23T13:19:09.002Z,45.37
2023-03-23T13:20:09.034Z,45.33
2023-03-23T13:21:08.091Z,45.33
2023-03-23T13:22:08.153Z,45.36
2023-03-23T13:23:09.169Z,45.32
2023-03-23T13:24:09.195Z,45.33
2023-03-23T13:25:09.250Z,45.31
2023-03-23T13:26:09.292Z,45.32
2023-03-23T13:27:09.393Z,45.37
2023-03-23T13:30:08.493Z,45.33
2023-03-23T13:31:08.547Z,45.33
2023-03-23T13:35:08.727Z,45.30
2023-03-23T13:36:13.337Z,45.29
2023-03-23T13:37:09.772Z,45.32
2023-03-23T13:38:08.755Z,45.32
2023-03-23T13:39:08.739Z,45.31
2023-03-23T13:40:10.148Z,45.26
2023-03-23T13:41:09.751Z,45.28
2023-03-23T13:44:08.711Z,45.24
2023-03-23T13:45:09.728Z,45.26
2023-03-23T13:47:08.720Z,45.23
2023-03-23T13:48:09.675Z,45.27
2023-03-23T13:49:16.103Z,45.26
2023-03-23T13:50:09.686Z,45.24
2023-03-23T13:51:09.667Z,45.29
2023-03-23T13:53:08.709Z,45.25
2023-03-23T13:56:15.461Z,45.23
2023-03-23T13:57:09.620Z,45.22
2023-03-23T13:58:09.612Z,45.20
2023-03-23T14:02:08.570Z,45.19
2023-03-23T14:03:09.586Z,45.18
2023-03-23T14:04:09.572Z,45.20
2023-03-23T14:05:08.606Z,45.17
2023-03-23T14:06:09.651Z,45.21
2023-03-23T14:07:09.702Z,45.18
2023-03-23T14:10:08.868Z,45.16
2023-03-23T14:11:09.876Z,45.16
2023-03-23T14:12:09.900Z,45.15
2023-03-23T14:16:09.013Z,45.14
2023-03-23T14:17:10.046Z,45.15
2023-03-23T14:18:10.138Z,45.14
2023-03-23T14:19:10.192Z,45.13
2023-03-23T14:22:09.307Z,45.14
2023-03-23T14:23:10.333Z,45.09
2023-03-23T14:27:09.412Z,45.08
2023-03-23T14:28:10.418Z,45.08
2023-03-23T14:29:10.466Z,45.11
2023-03-23T14:30:10.462Z,45.08
2023-03-23T14:32:09.485Z,45.05
2023-03-23T14:33:10.482Z,45.03
2023-03-23T14:34:10.485Z,45.05
2023-03-23T14:35:12.625Z,45.02
2023-03-23T14:41:09.467Z,45.00
2023-03-23T14:42:09.448Z,45.00
2023-03-23T14:43:10.428Z,44.97
2023-03-23T14:48:09.393Z,44.98
2023-03-23T14:52:09.376Z,44.96
2023-03-23T14:54:09.345Z,44.97
2023-03-23T14:55:10.350Z,44.97
2023-03-23T15:02:09.298Z,44.95
2023-03-23T15:03:10.283Z,44.94
2023-03-23T15:05:09.298Z,44.92
2023-03-23T15:06:09.306Z,44.92
2023-03-23T15:07:10.294Z,44.91
2023-03-23T15:11:09.244Z,44.94
2023-03-23T15:12:10.229Z,44.93
2023-03-23T15:15:09.207Z,44.88
2023-03-23T15:16:10.220Z,44.90
2023-03-23T15:22:09.172Z,44.91
2023-03-23T15:23:10.184Z,44.90
2023-03-23T15:28:09.126Z,44.86
2023-03-23T15:29:09.132Z,44.85
2023-03-23T15:30:10.137Z,44.86
2023-03-23T15:35:12.467Z,43.68
2023-03-23T15:36:10.094Z,43.56
2023-03-23T15:37:18.483Z,42.99
2023-03-23T15:38:10.113Z,43.30
2023-03-23T15:42:09.048Z,42.66
2023-03-23T15:43:10.050Z,42.19
2023-03-23T15:44:10.038Z,42.06
2023-03-23T15:45:10.024Z,41.74
2023-03-23T15:50:08.990Z,41.67
2023-03-23T15:51:08.991Z,41.53
2023-03-23T15:52:09.968Z,41.73
2023-03-23T15:53:08.968Z,41.57
2023-03-23T15:54:14.120Z,41.50
2023-03-23T15:55:09.963Z,41.55
2023-03-23T15:58:08.945Z,41.48
2023-03-23T15:59:09.949Z,41.35
2023-03-23T16:00:10.003Z,41.29
2023-03-23T16:01:10.099Z,41.21
2023-03-23T16:02:10.147Z,41.17
2023-03-23T16:05:09.245Z,41.09
2023-03-23T16:06:09.312Z,41.06
2023-03-23T16:07:10.363Z,41.03
2023-03-23T16:08:09.411Z,41.02
2023-03-23T16:09:10.478Z,40.75
2023-03-23T16:10:10.538Z,41.03
2023-03-23T16:11:10.597Z,40.61
2023-03-23T16:15:09.619Z,40.54
2023-03-23T16:16:10.751Z,39.91
2023-03-23T16:19:09.662Z,39.58
2023-03-23T16:27:09.941Z,40.41
2023-03-23T16:28:10.935Z,40.24
2023-03-23T16:29:18.814Z,40.06
